sensor_id;sensor_type;location;lat;lon;timestamp;P1;durP1;ratioP1;P2;durP2;ratioP2
57389;SDS011;43217;52.694;6.214;2023-12-20T00:01:47;16.05;;;2.30;;
57389;SDS011;43217;52.694;6.214;2023-12-20T00:04:12;11.60;;;2.90;;
57389;SDS011;43217;52.694;6.214;2023-12-20T00:06:38;14.93;;;2.85;;
57389;SDS011;43217;52.694;6.214;2023-12-20T00:09:03;6.85;;;1.98;;
57389;SDS011;43217;52.694;6.214;2023-12-20T00:11:29;15.57;;;2.60;;
57389;SDS011;43217;52.694;6.214;2023-12-20T00:13:55;12.68;;;3.47;;
57389;SDS011;43217;52.694;6.214;2023-12-20T00:16:20;12.30;;;2.63;;
57389;SDS011;43217;52.694;6.214;2023-12-20T00:18:46;11.27;;;2.30;;
57389;SDS011;43217;52.694;6.214;2023-12-20T00:21:11;11.88;;;2.70;;
57389;SDS011;43217;52.694;6.214;2023-12-20T00:23:37;12.95;;;2.50;;
57389;SDS011;43217;52.694;6.214;2023-12-20T00:26:02;10.85;;;2.50;;
57389;SDS011;43217;52.694;6.214;2023-12-20T00:28:28;12.70;;;2.83;;
57389;SDS011;43217;52.694;6.214;2023-12-20T00:30:54;10.73;;;2.80;;
57389;SDS011;43217;52.694;6.214;2023-12-20T00:33:19;12.90;;;2.85;;
57389;SDS011;43217;52.694;6.214;2023-12-20T00:35:45;14.02;;;2.53;;
57389;SDS011;43217;52.694;6.214;2023-12-20T00:38:10;10.65;;;2.20;;
57389;SDS011;43217;52.694;6.214;2023-12-20T00:40:36;9.07;;;2.42;;
57389;SDS011;43217;52.694;6.214;2023-12-20T00:43:02;11.60;;;2.58;;
57389;SDS011;43217;52.694;6.214;2023-12-20T00:45:28;14.65;;;3.15;;
57389;SDS011;43217;52.694;6.214;2023-12-20T00:47:54;12.75;;;2.90;;
57389;SDS011;43217;52.694;6.214;2023-12-20T00:50:19;14.48;;;2.55;;
57389;SDS011;43217;52.694;6.214;2023-12-20T00:52:46;11.60;;;2.80;;
57389;SDS011;43217;52.694;6.214;2023-12-20T00:55:12;14.18;;;3.40;;
57389;SDS011;43217;52.694;6.214;2023-12-20T00:57:38;10.73;;;2.50;;
57389;SDS011;43217;52.694;6.214;2023-12-20T01:00:04;10.35;;;2.75;;
57389;SDS011;43217;52.694;6.214;2023-12-20T01:02:30;14.73;;;2.78;;
57389;SDS011;43217;52.694;6.214;2023-12-20T01:04:56;14.77;;;3.00;;
57389;SDS011;43217;52.694;6.214;2023-12-20T01:07:22;12.13;;;4.15;;
57389;SDS011;43217;52.694;6.214;2023-12-20T01:09:47;17.58;;;2.72;;
57389;SDS011;43217;52.694;6.214;2023-12-20T01:12:13;19.33;;;3.03;;
57389;SDS011;43217;52.694;6.214;2023-12-20T01:14:39;15.75;;;3.25;;
57389;SDS011;43217;52.694;6.214;2023-12-20T01:17:04;15.30;;;3.63;;
57389;SDS011;43217;52.694;6.214;2023-12-20T01:19:30;12.73;;;3.03;;
57389;SDS011;43217;52.694;6.214;2023-12-20T01:21:56;13.40;;;2.92;;
57389;SDS011;43217;52.694;6.214;2023-12-20T01:24:21;15.02;;;3.25;;
57389;SDS011;43217;52.694;6.214;2023-12-20T01:26:47;16.48;;;3.30;;
57389;SDS011;43217;52.694;6.214;2023-12-20T01:29:13;12.73;;;2.92;;
57389;SDS011;43217;52.694;6.214;2023-12-20T01:31:39;18.83;;;3.22;;
57389;SDS011;43217;52.694;6.214;2023-12-20T01:34:05;15.27;;;3.25;;
57389;SDS011;43217;52.694;6.214;2023-12-20T01:36:31;14.38;;;3.00;;
57389;SDS011;43217;52.694;6.214;2023-12-20T01:38:56;11.80;;;2.85;;
57389;SDS011;43217;52.694;6.214;2023-12-20T01:41:22;12.80;;;3.22;;
57389;SDS011;43217;52.694;6.214;2023-12-20T01:43:48;13.68;;;2.63;;
57389;SDS011;43217;52.694;6.214;2023-12-20T01:46:14;12.38;;;2.80;;
57389;SDS011;43217;52.694;6.214;2023-12-20T01:48:40;15.20;;;3.00;;
57389;SDS011;43217;52.694;6.214;2023-12-20T01:51:06;14.70;;;3.22;;
57389;SDS011;43217;52.694;6.214;2023-12-20T01:53:32;10.20;;;3.00;;
57389;SDS011;43217;52.694;6.214;2023-12-20T01:55:59;15.60;;;3.30;;
57389;SDS011;43217;52.694;6.214;2023-12-20T01:58:25;16.63;;;3.45;;
57389;SDS011;43217;52.694;6.214;2023-12-20T02:00:51;13.35;;;3.78;;
57389;SDS011;43217;52.694;6.214;2023-12-20T02:03:17;12.85;;;3.00;;
57389;SDS011;43217;52.694;6.214;2023-12-20T02:05:43;12.30;;;2.58;;
57389;SDS011;43217;52.694;6.214;2023-12-20T02:08:10;10.85;;;2.63;;
57389;SDS011;43217;52.694;6.214;2023-12-20T02:10:36;14.93;;;3.88;;
57389;SDS011;43217;52.694;6.214;2023-12-20T02:13:03;13.30;;;3.28;;
57389;SDS011;43217;52.694;6.214;2023-12-20T02:15:29;14.30;;;3.83;;
57389;SDS011;43217;52.694;6.214;2023-12-20T02:17:55;13.77;;;3.15;;
57389;SDS011;43217;52.694;6.214;2023-12-20T02:20:21;15.93;;;3.90;;
57389;SDS011;43217;52.694;6.214;2023-12-20T02:22:46;14.40;;;3.72;;
57389;SDS011;43217;52.694;6.214;2023-12-20T02:25:12;16.77;;;3.83;;
57389;SDS011;43217;52.694;6.214;2023-12-20T02:27:38;14.75;;;4.05;;
57389;SDS011;43217;52.694;6.214;2023-12-20T02:30:04;14.45;;;4.07;;
57389;SDS011;43217;52.694;6.214;2023-12-20T02:32:31;22.85;;;4.70;;
57389;SDS011;43217;52.694;6.214;2023-12-20T02:34:57;21.45;;;4.90;;
57389;SDS011;43217;52.694;6.214;2023-12-20T02:37:23;21.23;;;5.28;;
57389;SDS011;43217;52.694;6.214;2023-12-20T02:39:48;14.73;;;4.18;;
57389;SDS011;43217;52.694;6.214;2023-12-20T02:42:14;22.40;;;4.78;;
57389;SDS011;43217;52.694;6.214;2023-12-20T02:44:39;19.60;;;4.32;;
57389;SDS011;43217;52.694;6.214;2023-12-20T02:47:05;21.80;;;4.13;;
57389;SDS011;43217;52.694;6.214;2023-12-20T02:49:31;18.63;;;4.40;;
57389;SDS011;43217;52.694;6.214;2023-12-20T02:51:56;22.80;;;4.90;;
57389;SDS011;43217;52.694;6.214;2023-12-20T02:54:22;20.85;;;4.82;;
57389;SDS011;43217;52.694;6.214;2023-12-20T02:56:47;19.40;;;4.13;;
57389;SDS011;43217;52.694;6.214;2023-12-20T02:59:13;20.60;;;3.80;;
57389;SDS011;43217;52.694;6.214;2023-12-20T03:01:42;22.27;;;5.50;;
57389;SDS011;43217;52.694;6.214;2023-12-20T03:04:09;19.02;;;4.88;;
57389;SDS011;43217;52.694;6.214;2023-12-20T03:06:35;23.48;;;4.90;;
57389;SDS011;43217;52.694;6.214;2023-12-20T03:09:00;20.27;;;4.35;;
57389;SDS011;43217;52.694;6.214;2023-12-20T03:11:26;25.30;;;4.97;;
57389;SDS011;43217;52.694;6.214;2023-12-20T03:13:52;24.65;;;5.75;;
57389;SDS011;43217;52.694;6.214;2023-12-20T03:16:18;24.23;;;5.47;;
57389;SDS011;43217;52.694;6.214;2023-12-20T03:18:43;20.13;;;4.22;;
57389;SDS011;43217;52.694;6.214;2023-12-20T03:21:09;22.85;;;4.95;;
57389;SDS011;43217;52.694;6.214;2023-12-20T03:23:35;18.73;;;5.35;;
57389;SDS011;43217;52.694;6.214;2023-12-20T03:26:00;22.40;;;4.75;;
57389;SDS011;43217;52.694;6.214;2023-12-20T03:28:26;20.33;;;5.13;;
57389;SDS011;43217;52.694;6.214;2023-12-20T03:30:52;22.83;;;4.80;;
57389;SDS011;43217;52.694;6.214;2023-12-20T03:33:18;21.05;;;4.90;;
57389;SDS011;43217;52.694;6.214;2023-12-20T03:35:43;22.70;;;5.10;;
57389;SDS011;43217;52.694;6.214;2023-12-20T03:38:09;21.15;;;5.35;;
57389;SDS011;43217;52.694;6.214;2023-12-20T03:40:35;20.55;;;5.18;;
57389;SDS011;43217;52.694;6.214;2023-12-20T03:43:00;29.30;;;5.30;;
57389;SDS011;43217;52.694;6.214;2023-12-20T03:45:26;23.27;;;4.88;;
57389;SDS011;43217;52.694;6.214;2023-12-20T03:47:52;22.02;;;4.55;;
57389;SDS011;43217;52.694;6.214;2023-12-20T03:50:24;23.17;;;4.32;;
57389;SDS011;43217;52.694;6.214;2023-12-20T03:52:51;21.55;;;5.75;;
57389;SDS011;43217;52.694;6.214;2023-12-20T03:55:17;27.23;;;5.43;;
57389;SDS011;43217;52.694;6.214;2023-12-20T03:57:43;18.27;;;4.78;;
57389;SDS011;43217;52.694;6.214;2023-12-20T04:00:08;17.38;;;5.07;;
57389;SDS011;43217;52.694;6.214;2023-12-20T04:02:38;22.52;;;4.78;;
57389;SDS011;43217;52.694;6.214;2023-12-20T04:05:04;24.30;;;5.55;;
57389;SDS011;43217;52.694;6.214;2023-12-20T04:07:31;17.85;;;4.50;;
57389;SDS011;43217;52.694;6.214;2023-12-20T04:09:57;18.38;;;4.55;;
57389;SDS011;43217;52.694;6.214;2023-12-20T04:12:22;22.20;;;5.10;;
57389;SDS011;43217;52.694;6.214;2023-12-20T04:14:48;21.75;;;4.43;;
57389;SDS011;43217;52.694;6.214;2023-12-20T04:17:14;22.08;;;4.63;;
57389;SDS011;43217;52.694;6.214;2023-12-20T04:19:41;20.95;;;4.68;;
57389;SDS011;43217;52.694;6.214;2023-12-20T04:22:07;19.45;;;5.00;;
57389;SDS011;43217;52.694;6.214;2023-12-20T04:24:32;21.60;;;5.00;;
57389;SDS011;43217;52.694;6.214;2023-12-20T04:26:58;19.95;;;4.35;;
57389;SDS011;43217;52.694;6.214;2023-12-20T04:29:24;16.92;;;4.80;;
57389;SDS011;43217;52.694;6.214;2023-12-20T04:31:49;22.58;;;4.90;;
57389;SDS011;43217;52.694;6.214;2023-12-20T04:34:16;20.23;;;4.13;;
57389;SDS011;43217;52.694;6.214;2023-12-20T04:36:42;18.58;;;4.63;;
57389;SDS011;43217;52.694;6.214;2023-12-20T04:39:08;21.02;;;4.95;;
57389;SDS011;43217;52.694;6.214;2023-12-20T04:41:34;23.23;;;5.53;;
57389;SDS011;43217;52.694;6.214;2023-12-20T04:43:59;19.33;;;4.75;;
57389;SDS011;43217;52.694;6.214;2023-12-20T04:46:25;19.13;;;4.57;;
57389;SDS011;43217;52.694;6.214;2023-12-20T04:48:51;24.60;;;5.43;;
57389;SDS011;43217;52.694;6.214;2023-12-20T04:51:17;26.60;;;5.53;;
57389;SDS011;43217;52.694;6.214;2023-12-20T04:53:42;19.58;;;5.10;;
57389;SDS011;43217;52.694;6.214;2023-12-20T04:56:08;21.70;;;5.28;;
57389;SDS011;43217;52.694;6.214;2023-12-20T04:58:34;14.90;;;4.38;;
57389;SDS011;43217;52.694;6.214;2023-12-20T05:00:59;23.80;;;4.63;;
57389;SDS011;43217;52.694;6.214;2023-12-20T05:03:25;21.40;;;5.30;;
57389;SDS011;43217;52.694;6.214;2023-12-20T05:05:50;21.23;;;5.00;;
57389;SDS011;43217;52.694;6.214;2023-12-20T05:08:16;19.73;;;4.63;;
57389;SDS011;43217;52.694;6.214;2023-12-20T05:10:41;21.77;;;5.00;;
57389;SDS011;43217;52.694;6.214;2023-12-20T05:13:07;21.55;;;4.32;;
57389;SDS011;43217;52.694;6.214;2023-12-20T05:15:33;21.98;;;5.47;;
57389;SDS011;43217;52.694;6.214;2023-12-20T05:17:58;19.77;;;5.88;;
57389;SDS011;43217;52.694;6.214;2023-12-20T05:20:24;30.55;;;5.55;;
57389;SDS011;43217;52.694;6.214;2023-12-20T05:22:49;22.77;;;5.15;;
57389;SDS011;43217;52.694;6.214;2023-12-20T05:25:15;17.60;;;4.05;;
57389;SDS011;43217;52.694;6.214;2023-12-20T05:27:41;20.15;;;4.65;;
57389;SDS011;43217;52.694;6.214;2023-12-20T05:30:06;24.55;;;4.78;;
57389;SDS011;43217;52.694;6.214;2023-12-20T05:32:32;22.20;;;5.88;;
57389;SDS011;43217;52.694;6.214;2023-12-20T05:34:58;18.35;;;5.18;;
57389;SDS011;43217;52.694;6.214;2023-12-20T05:37:23;19.35;;;4.40;;
57389;SDS011;43217;52.694;6.214;2023-12-20T05:39:49;21.98;;;5.32;;
57389;SDS011;43217;52.694;6.214;2023-12-20T05:42:14;15.23;;;4.25;;
57389;SDS011;43217;52.694;6.214;2023-12-20T05:44:40;18.00;;;4.25;;
57389;SDS011;43217;52.694;6.214;2023-12-20T05:47:05;18.17;;;4.72;;
57389;SDS011;43217;52.694;6.214;2023-12-20T05:49:31;17.17;;;4.65;;
57389;SDS011;43217;52.694;6.214;2023-12-20T05:51:56;24.98;;;4.55;;
57389;SDS011;43217;52.694;6.214;2023-12-20T05:54:22;17.63;;;4.00;;
57389;SDS011;43217;52.694;6.214;2023-12-20T05:56:48;26.70;;;4.82;;
57389;SDS011;43217;52.694;6.214;2023-12-20T05:59:13;17.10;;;4.25;;
57389;SDS011;43217;52.694;6.214;2023-12-20T06:01:39;16.25;;;4.28;;
57389;SDS011;43217;52.694;6.214;2023-12-20T06:04:05;19.63;;;4.10;;
57389;SDS011;43217;52.694;6.214;2023-12-20T06:06:30;19.77;;;5.10;;
57389;SDS011;43217;52.694;6.214;2023-12-20T06:08:56;21.25;;;5.07;;
57389;SDS011;43217;52.694;6.214;2023-12-20T06:11:22;15.82;;;4.65;;
57389;SDS011;43217;52.694;6.214;2023-12-20T06:13:48;19.67;;;4.05;;
57389;SDS011;43217;52.694;6.214;2023-12-20T06:16:16;22.77;;;4.90;;
57389;SDS011;43217;52.694;6.214;2023-12-20T06:18:42;18.95;;;4.30;;
57389;SDS011;43217;52.694;6.214;2023-12-20T06:21:07;20.20;;;5.25;;
57389;SDS011;43217;52.694;6.214;2023-12-20T06:23:33;14.27;;;3.83;;
57389;SDS011;43217;52.694;6.214;2023-12-20T06:25:58;18.73;;;5.18;;
57389;SDS011;43217;52.694;6.214;2023-12-20T06:28:24;17.27;;;3.83;;
57389;SDS011;43217;52.694;6.214;2023-12-20T06:30:50;19.63;;;4.88;;
57389;SDS011;43217;52.694;6.214;2023-12-20T06:33:17;18.60;;;4.28;;
57389;SDS011;43217;52.694;6.214;2023-12-20T06:35:43;17.38;;;4.95;;
57389;SDS011;43217;52.694;6.214;2023-12-20T06:38:09;15.57;;;3.83;;
57389;SDS011;43217;52.694;6.214;2023-12-20T06:40:35;19.55;;;4.60;;
57389;SDS011;43217;52.694;6.214;2023-12-20T06:43:00;19.35;;;4.68;;
57389;SDS011;43217;52.694;6.214;2023-12-20T06:45:26;21.38;;;5.25;;
57389;SDS011;43217;52.694;6.214;2023-12-20T06:47:51;18.55;;;4.13;;
57389;SDS011;43217;52.694;6.214;2023-12-20T06:50:17;17.90;;;4.18;;
57389;SDS011;43217;52.694;6.214;2023-12-20T06:52:42;18.98;;;4.60;;
57389;SDS011;43217;52.694;6.214;2023-12-20T06:55:08;19.95;;;4.30;;
57389;SDS011;43217;52.694;6.214;2023-12-20T06:57:34;19.58;;;4.50;;
57389;SDS011;43217;52.694;6.214;2023-12-20T07:00:01;23.80;;;4.60;;
57389;SDS011;43217;52.694;6.214;2023-12-20T07:02:27;18.10;;;4.75;;
57389;SDS011;43217;52.694;6.214;2023-12-20T07:07:20;17.25;;;4.57;;
57389;SDS011;43217;52.694;6.214;2023-12-20T07:09:48;19.80;;;4.50;;
57389;SDS011;43217;52.694;6.214;2023-12-20T07:12:13;21.00;;;4.60;;
57389;SDS011;43217;52.694;6.214;2023-12-20T07:14:39;16.67;;;4.72;;
57389;SDS011;43217;52.694;6.214;2023-12-20T07:17:04;19.05;;;4.40;;
57389;SDS011;43217;52.694;6.214;2023-12-20T07:19:32;21.27;;;4.75;;
57389;SDS011;43217;52.694;6.214;2023-12-20T07:21:58;21.33;;;4.25;;
57389;SDS011;43217;52.694;6.214;2023-12-20T07:24:23;24.13;;;4.65;;
57389;SDS011;43217;52.694;6.214;2023-12-20T07:26:49;21.95;;;5.80;;
57389;SDS011;43217;52.694;6.214;2023-12-20T07:29:15;22.48;;;4.63;;
57389;SDS011;43217;52.694;6.214;2023-12-20T07:31:40;21.90;;;4.68;;
57389;SDS011;43217;52.694;6.214;2023-12-20T07:34:06;19.20;;;5.03;;
57389;SDS011;43217;52.694;6.214;2023-12-20T07:36:32;21.45;;;4.97;;
57389;SDS011;43217;52.694;6.214;2023-12-20T07:38:57;21.13;;;5.00;;
57389;SDS011;43217;52.694;6.214;2023-12-20T07:41:23;20.52;;;5.40;;
57389;SDS011;43217;52.694;6.214;2023-12-20T07:43:48;22.40;;;5.38;;
57389;SDS011;43217;52.694;6.214;2023-12-20T07:46:14;27.60;;;5.47;;
57389;SDS011;43217;52.694;6.214;2023-12-20T07:48:40;20.40;;;5.82;;
57389;SDS011;43217;52.694;6.214;2023-12-20T07:51:06;22.63;;;5.03;;
57389;SDS011;43217;52.694;6.214;2023-12-20T07:53:33;22.88;;;4.82;;
57389;SDS011;43217;52.694;6.214;2023-12-20T07:55:59;22.20;;;5.50;;
57389;SDS011;43217;52.694;6.214;2023-12-20T07:58:25;25.23;;;5.65;;
57389;SDS011;43217;52.694;6.214;2023-12-20T08:00:50;26.40;;;5.90;;
57389;SDS011;43217;52.694;6.214;2023-12-20T08:03:16;23.63;;;5.53;;
57389;SDS011;43217;52.694;6.214;2023-12-20T08:05:41;21.60;;;4.82;;
57389;SDS011;43217;52.694;6.214;2023-12-20T08:08:07;18.75;;;4.80;;
57389;SDS011;43217;52.694;6.214;2023-12-20T08:10:33;19.52;;;5.25;;
57389;SDS011;43217;52.694;6.214;2023-12-20T08:12:58;18.73;;;4.93;;
57389;SDS011;43217;52.694;6.214;2023-12-20T08:15:24;22.45;;;5.13;;
57389;SDS011;43217;52.694;6.214;2023-12-20T08:17:49;25.63;;;5.45;;
57389;SDS011;43217;52.694;6.214;2023-12-20T08:20:16;23.40;;;5.18;;
57389;SDS011;43217;52.694;6.214;2023-12-20T08:22:42;21.02;;;4.95;;
57389;SDS011;43217;52.694;6.214;2023-12-20T08:25:07;18.42;;;4.55;;
57389;SDS011;43217;52.694;6.214;2023-12-20T08:27:33;24.25;;;5.60;;
57389;SDS011;43217;52.694;6.214;2023-12-20T08:30:03;22.58;;;5.88;;
57389;SDS011;43217;52.694;6.214;2023-12-20T08:32:29;24.42;;;5.90;;
57389;SDS011;43217;52.694;6.214;2023-12-20T08:34:54;23.65;;;5.85;;
57389;SDS011;43217;52.694;6.214;2023-12-20T08:37:20;18.98;;;5.00;;
57389;SDS011;43217;52.694;6.214;2023-12-20T08:39:45;24.92;;;5.43;;
57389;SDS011;43217;52.694;6.214;2023-12-20T08:42:11;25.25;;;6.03;;
57389;SDS011;43217;52.694;6.214;2023-12-20T08:44:37;22.05;;;6.00;;
57389;SDS011;43217;52.694;6.214;2023-12-20T08:47:02;20.70;;;5.45;;
57389;SDS011;43217;52.694;6.214;2023-12-20T08:49:28;21.70;;;5.28;;
57389;SDS011;43217;52.694;6.214;2023-12-20T08:51:54;22.23;;;4.60;;
57389;SDS011;43217;52.694;6.214;2023-12-20T08:54:19;26.15;;;6.25;;
57389;SDS011;43217;52.694;6.214;2023-12-20T08:56:45;21.15;;;4.40;;
57389;SDS011;43217;52.694;6.214;2023-12-20T08:59:11;19.02;;;4.82;;
57389;SDS011;43217;52.694;6.214;2023-12-20T09:01:37;22.08;;;5.13;;
57389;SDS011;43217;52.694;6.214;2023-12-20T09:04:03;20.75;;;5.10;;
57389;SDS011;43217;52.694;6.214;2023-12-20T09:06:28;26.35;;;5.05;;
57389;SDS011;43217;52.694;6.214;2023-12-20T09:08:54;26.15;;;5.53;;
57389;SDS011;43217;52.694;6.214;2023-12-20T09:11:19;21.45;;;5.05;;
57389;SDS011;43217;52.694;6.214;2023-12-20T09:13:45;23.05;;;4.35;;
57389;SDS011;43217;52.694;6.214;2023-12-20T09:16:11;19.45;;;4.90;;
57389;SDS011;43217;52.694;6.214;2023-12-20T09:18:38;19.67;;;4.63;;
57389;SDS011;43217;52.694;6.214;2023-12-20T09:21:03;20.15;;;5.05;;
57389;SDS011;43217;52.694;6.214;2023-12-20T09:23:29;16.95;;;4.15;;
57389;SDS011;43217;52.694;6.214;2023-12-20T09:25:54;20.23;;;4.88;;
57389;SDS011;43217;52.694;6.214;2023-12-20T09:28:20;19.42;;;4.80;;
57389;SDS011;43217;52.694;6.214;2023-12-20T09:30:46;18.10;;;5.05;;
57389;SDS011;43217;52.694;6.214;2023-12-20T09:33:12;20.13;;;5.03;;
57389;SDS011;43217;52.694;6.214;2023-12-20T09:35:39;24.83;;;5.15;;
57389;SDS011;43217;52.694;6.214;2023-12-20T09:38:04;16.40;;;5.38;;
57389;SDS011;43217;52.694;6.214;2023-12-20T09:40:30;20.35;;;4.78;;
57389;SDS011;43217;52.694;6.214;2023-12-20T09:45:28;19.80;;;4.45;;
57389;SDS011;43217;52.694;6.214;2023-12-20T09:47:55;19.23;;;4.32;;
57389;SDS011;43217;52.694;6.214;2023-12-20T09:50:22;17.27;;;4.85;;
57389;SDS011;43217;52.694;6.214;2023-12-20T09:52:51;18.15;;;5.38;;
57389;SDS011;43217;52.694;6.214;2023-12-20T09:55:18;20.27;;;5.50;;
57389;SDS011;43217;52.694;6.214;2023-12-20T09:57:45;17.33;;;4.28;;
57389;SDS011;43217;52.694;6.214;2023-12-20T10:00:12;18.33;;;4.70;;
57389;SDS011;43217;52.694;6.214;2023-12-20T10:02:41;19.85;;;4.75;;
57389;SDS011;43217;52.694;6.214;2023-12-20T10:05:15;19.40;;;4.65;;
57389;SDS011;43217;52.694;6.214;2023-12-20T10:07:46;24.50;;;5.63;;
57389;SDS011;43217;52.694;6.214;2023-12-20T10:10:12;14.60;;;3.30;;
57389;SDS011;43217;52.694;6.214;2023-12-20T10:12:38;12.00;;;2.25;;
57389;SDS011;43217;52.694;6.214;2023-12-20T10:15:04;6.88;;;1.92;;
57389;SDS011;43217;52.694;6.214;2023-12-20T10:17:31;6.63;;;1.58;;
57389;SDS011;43217;52.694;6.214;2023-12-20T10:19:57;9.05;;;2.47;;
57389;SDS011;43217;52.694;6.214;2023-12-20T10:22:23;5.90;;;1.65;;
57389;SDS011;43217;52.694;6.214;2023-12-20T10:24:49;11.82;;;2.40;;
57389;SDS011;43217;52.694;6.214;2023-12-20T10:27:14;8.32;;;2.00;;
57389;SDS011;43217;52.694;6.214;2023-12-20T10:29:44;8.15;;;3.35;;
57389;SDS011;43217;52.694;6.214;2023-12-20T10:32:31;10.65;;;2.67;;
57389;SDS011;43217;52.694;6.214;2023-12-20T10:34:56;11.15;;;2.40;;
57389;SDS011;43217;52.694;6.214;2023-12-20T10:37:22;8.43;;;2.50;;
57389;SDS011;43217;52.694;6.214;2023-12-20T10:39:51;9.30;;;2.70;;
57389;SDS011;43217;52.694;6.214;2023-12-20T10:42:30;9.50;;;2.17;;
57389;SDS011;43217;52.694;6.214;2023-12-20T10:44:56;8.88;;;2.10;;
57389;SDS011;43217;52.694;6.214;2023-12-20T10:49:50;6.05;;;2.05;;
57389;SDS011;43217;52.694;6.214;2023-12-20T10:52:17;8.77;;;2.20;;
57389;SDS011;43217;52.694;6.214;2023-12-20T10:54:43;5.53;;;1.92;;
57389;SDS011;43217;52.694;6.214;2023-12-20T10:57:09;12.52;;;3.30;;
57389;SDS011;43217;52.694;6.214;2023-12-20T10:59:36;10.80;;;2.30;;
57389;SDS011;43217;52.694;6.214;2023-12-20T11:02:03;7.80;;;2.30;;
57389;SDS011;43217;52.694;6.214;2023-12-20T11:04:37;12.93;;;2.75;;
57389;SDS011;43217;52.694;6.214;2023-12-20T11:09:46;7.63;;;2.08;;
57389;SDS011;43217;52.694;6.214;2023-12-20T11:12:20;6.75;;;1.83;;
57389;SDS011;43217;52.694;6.214;2023-12-20T11:15:02;9.95;;;2.05;;
57389;SDS011;43217;52.694;6.214;2023-12-20T11:17:29;7.45;;;1.95;;
57389;SDS011;43217;52.694;6.214;2023-12-20T11:22:22;9.48;;;2.10;;
57389;SDS011;43217;52.694;6.214;2023-12-20T11:24:50;10.57;;;1.80;;
57389;SDS011;43217;52.694;6.214;2023-12-20T11:27:16;6.13;;;1.60;;
57389;SDS011;43217;52.694;6.214;2023-12-20T11:29:45;8.07;;;2.67;;
57389;SDS011;43217;52.694;6.214;2023-12-20T11:34:57;6.07;;;1.70;;
57389;SDS011;43217;52.694;6.214;2023-12-20T11:37:29;8.00;;;1.90;;
57389;SDS011;43217;52.694;6.214;2023-12-20T11:40:05;10.35;;;2.20;;
57389;SDS011;43217;52.694;6.214;2023-12-20T11:42:44;7.95;;;1.70;;
57389;SDS011;43217;52.694;6.214;2023-12-20T11:45:15;7.38;;;2.00;;
57389;SDS011;43217;52.694;6.214;2023-12-20T11:47:47;7.10;;;1.67;;
57389;SDS011;43217;52.694;6.214;2023-12-20T11:50:20;7.70;;;1.98;;
57389;SDS011;43217;52.694;6.214;2023-12-20T11:52:47;12.80;;;2.10;;
57389;SDS011;43217;52.694;6.214;2023-12-20T11:55:13;10.40;;;2.30;;
57389;SDS011;43217;52.694;6.214;2023-12-20T11:57:39;6.15;;;2.10;;
57389;SDS011;43217;52.694;6.214;2023-12-20T12:00:05;10.85;;;1.92;;
57389;SDS011;43217;52.694;6.214;2023-12-20T12:02:31;11.20;;;2.58;;
57389;SDS011;43217;52.694;6.214;2023-12-20T12:04:57;9.80;;;2.55;;
57389;SDS011;43217;52.694;6.214;2023-12-20T12:07:24;9.38;;;2.45;;
57389;SDS011;43217;52.694;6.214;2023-12-20T12:09:50;10.13;;;2.83;;
57389;SDS011;43217;52.694;6.214;2023-12-20T12:12:17;10.45;;;2.65;;
57389;SDS011;43217;52.694;6.214;2023-12-20T12:14:44;9.63;;;2.50;;
57389;SDS011;43217;52.694;6.214;2023-12-20T12:17:13;12.23;;;2.47;;
57389;SDS011;43217;52.694;6.214;2023-12-20T12:19:40;11.10;;;2.55;;
57389;SDS011;43217;52.694;6.214;2023-12-20T12:22:09;9.30;;;2.45;;
57389;SDS011;43217;52.694;6.214;2023-12-20T12:24:40;9.07;;;2.47;;
57389;SDS011;43217;52.694;6.214;2023-12-20T12:27:06;6.25;;;2.08;;
57389;SDS011;43217;52.694;6.214;2023-12-20T12:29:33;10.90;;;2.20;;
57389;SDS011;43217;52.694;6.214;2023-12-20T12:31:59;7.50;;;2.03;;
57389;SDS011;43217;52.694;6.214;2023-12-20T12:34:29;9.32;;;2.03;;
57389;SDS011;43217;52.694;6.214;2023-12-20T12:36:55;12.57;;;2.78;;
57389;SDS011;43217;52.694;6.214;2023-12-20T12:39:22;8.95;;;2.10;;
57389;SDS011;43217;52.694;6.214;2023-12-20T12:41:50;7.22;;;2.05;;
57389;SDS011;43217;52.694;6.214;2023-12-20T12:44:16;10.88;;;2.20;;
57389;SDS011;43217;52.694;6.214;2023-12-20T12:46:42;5.78;;;1.92;;
57389;SDS011;43217;52.694;6.214;2023-12-20T12:49:09;7.22;;;2.13;;
57389;SDS011;43217;52.694;6.214;2023-12-20T12:51:34;12.73;;;2.50;;
57389;SDS011;43217;52.694;6.214;2023-12-20T12:54:00;9.52;;;2.00;;
57389;SDS011;43217;52.694;6.214;2023-12-20T12:56:26;10.45;;;2.65;;
57389;SDS011;43217;52.694;6.214;2023-12-20T12:58:51;10.40;;;2.47;;
57389;SDS011;43217;52.694;6.214;2023-12-20T13:01:17;9.65;;;2.40;;
57389;SDS011;43217;52.694;6.214;2023-12-20T13:03:42;9.55;;;1.92;;
57389;SDS011;43217;52.694;6.214;2023-12-20T13:06:08;7.90;;;2.03;;
57389;SDS011;43217;52.694;6.214;2023-12-20T13:08:34;5.40;;;1.70;;
57389;SDS011;43217;52.694;6.214;2023-12-20T13:10:59;6.65;;;1.88;;
57389;SDS011;43217;52.694;6.214;2023-12-20T13:13:28;9.57;;;2.35;;
57389;SDS011;43217;52.694;6.214;2023-12-20T13:15:54;6.57;;;1.95;;
57389;SDS011;43217;52.694;6.214;2023-12-20T13:18:21;6.93;;;1.80;;
57389;SDS011;43217;52.694;6.214;2023-12-20T13:20:47;7.83;;;2.27;;
57389;SDS011;43217;52.694;6.214;2023-12-20T13:23:13;7.47;;;1.70;;
57389;SDS011;43217;52.694;6.214;2023-12-20T13:25:39;7.22;;;1.70;;
57389;SDS011;43217;52.694;6.214;2023-12-20T13:28:05;7.30;;;1.63;;
57389;SDS011;43217;52.694;6.214;2023-12-20T13:30:31;7.03;;;1.90;;
57389;SDS011;43217;52.694;6.214;2023-12-20T13:32:56;7.38;;;2.78;;
57389;SDS011;43217;52.694;6.214;2023-12-20T13:35:22;8.02;;;2.63;;
57389;SDS011;43217;52.694;6.214;2023-12-20T13:37:48;10.43;;;2.15;;
57389;SDS011;43217;52.694;6.214;2023-12-20T13:40:13;12.73;;;2.20;;
57389;SDS011;43217;52.694;6.214;2023-12-20T13:42:39;8.25;;;2.30;;
57389;SDS011;43217;52.694;6.214;2023-12-20T13:45:05;10.77;;;2.53;;
57389;SDS011;43217;52.694;6.214;2023-12-20T13:47:31;8.32;;;2.30;;
57389;SDS011;43217;52.694;6.214;2023-12-20T13:49:57;11.98;;;2.72;;
57389;SDS011;43217;52.694;6.214;2023-12-20T13:52:23;12.65;;;3.08;;
57389;SDS011;43217;52.694;6.214;2023-12-20T13:54:49;12.82;;;3.80;;
57389;SDS011;43217;52.694;6.214;2023-12-20T13:57:14;17.63;;;3.63;;
57389;SDS011;43217;52.694;6.214;2023-12-20T13:59:40;20.42;;;4.30;;
57389;SDS011;43217;52.694;6.214;2023-12-20T14:02:06;19.00;;;4.20;;
57389;SDS011;43217;52.694;6.214;2023-12-20T14:04:31;14.18;;;3.60;;
57389;SDS011;43217;52.694;6.214;2023-12-20T14:06:57;16.48;;;3.72;;
57389;SDS011;43217;52.694;6.214;2023-12-20T14:09:23;17.92;;;3.92;;
57389;SDS011;43217;52.694;6.214;2023-12-20T14:11:48;17.75;;;4.30;;
57389;SDS011;43217;52.694;6.214;2023-12-20T14:14:14;16.17;;;4.30;;
57389;SDS011;43217;52.694;6.214;2023-12-20T14:16:39;16.63;;;4.03;;
57389;SDS011;43217;52.694;6.214;2023-12-20T14:19:06;14.43;;;3.63;;
57389;SDS011;43217;52.694;6.214;2023-12-20T14:21:33;12.85;;;4.47;;
57389;SDS011;43217;52.694;6.214;2023-12-20T14:23:58;17.85;;;4.82;;
57389;SDS011;43217;52.694;6.214;2023-12-20T14:26:25;16.35;;;5.65;;
57389;SDS011;43217;52.694;6.214;2023-12-20T14:28:50;18.85;;;5.78;;
57389;SDS011;43217;52.694;6.214;2023-12-20T14:31:16;15.93;;;4.57;;
57389;SDS011;43217;52.694;6.214;2023-12-20T14:33:41;16.48;;;4.78;;
57389;SDS011;43217;52.694;6.214;2023-12-20T14:36:07;15.02;;;4.13;;
57389;SDS011;43217;52.694;6.214;2023-12-20T14:38:33;28.58;;;5.53;;
57389;SDS011;43217;52.694;6.214;2023-12-20T14:41:00;14.55;;;4.20;;
57389;SDS011;43217;52.694;6.214;2023-12-20T14:43:28;16.67;;;4.80;;
57389;SDS011;43217;52.694;6.214;2023-12-20T14:45:54;19.48;;;4.03;;